Aviation Digital Data Service (ADDS)

Output produced by TAFs form (0810 UTC 18 November 2017)
found at http://aviationweather.gov/adds/tafs/
 
KRIL 180548Z 1806/1906 25007KT P6SM VCSH SCT040 OVC070 
     FM180800 29005KT P6SM SCT070 SCT110 
     FM181000 28009KT P6SM SKC 
     FM181200 VRB03KT P6SM SKC 
     FM181900 27005KT P6SM SKC